Time;durP1;ratioP1;P1;durP2;ratioP2;P2;SDS_P1;SDS_P2;PMS_P1;PMS_P2;Temp;Humidity;BMP_temperature;BMP_pressure;BME280_temperature;BME280_humidity;BME280_pressure;Samples;Min_cycle;Max_cycle;Signal;HPM_P1;HPM_P2
2023/04/17 00:01:54;;;;;;;36.83;28.77;;;10.40;99.90;;;;;;2612731;54;20392;-67
2023/04/17 00:07:42;;;;;;;39.80;30.50;;;10.40;99.90;;;;;;2614128;39;20830;-67
2023/04/17 00:13:30;;;;;;;37.93;31.70;;;10.40;99.90;;;;;;2612363;39;20793;-68
2023/04/17 00:19:17;;;;;;;35.03;29.73;;;10.40;99.90;;;;;;2611668;54;20126;-67
2023/04/17 00:25:06;;;;;;;38.70;30.53;;;10.50;99.90;;;;;;2613265;54;20130;-67
2023/04/17 00:30:53;;;;;;;36.07;30.50;;;10.40;99.90;;;;;;2612980;39;20721;-67
2023/04/17 00:34:08;;;;;;;37.10;29.50;;;10.40;99.90;;;;;;2611178;54;20399;-68
2023/04/17 00:36:34;;;;;;;37.63;29.73;;;10.40;99.90;;;;;;2611948;54;20143;-67
2023/04/17 00:42:22;;;;;;;43.00;31.37;;;10.30;99.90;;;;;;2612396;39;20209;-67
2023/04/17 00:48:12;;;;;;;45.23;30.00;;;10.30;99.90;;;;;;2611505;54;20134;-66
2023/04/17 00:53:59;;;;;;;38.77;27.40;;;10.30;99.90;;;;;;2612824;54;20451;-67
2023/04/17 00:59:47;;;;;;;40.03;31.77;;;10.30;99.90;;;;;;2612276;54;20138;-68
2023/04/17 01:05:37;;;;;;;35.00;29.17;;;10.20;99.90;;;;;;2610935;54;21691;-67
2023/04/17 01:11:25;;;;;;;38.00;29.33;;;10.20;99.90;;;;;;2612909;54;20407;-68
2023/04/17 01:17:13;;;;;;;37.67;30.17;;;10.20;99.90;;;;;;2613161;54;20123;-67
2023/04/17 01:23:00;;;;;;;37.93;29.40;;;10.20;99.90;;;;;;2612971;54;20364;-67
2023/04/17 01:28:56;;;;;;;46.23;33.57;;;10.20;99.90;;;;;;2613368;54;20127;-67
2023/04/17 01:38:40;;;;;;;36.73;30.70;;;10.20;99.90;;;;;;2611546;54;20371;-67
2023/04/17 01:44:27;;;;;;;40.60;31.83;;;10.20;99.90;;;;;;2613132;39;20750;-67
2023/04/17 01:50:15;;;;;;;37.07;28.67;;;10.20;99.90;;;;;;2611280;54;20166;-67
2023/04/17 01:56:03;;;;;;;40.00;30.23;;;10.20;99.90;;;;;;2612786;39;20676;-67
2023/04/17 02:01:51;;;;;;;36.17;27.87;;;10.10;99.90;;;;;;2614246;54;20123;-67
2023/04/17 02:07:39;;;;;;;39.13;30.60;;;10.00;99.90;;;;;;2611474;54;20391;-67
2023/04/17 02:13:26;;;;;;;40.83;29.83;;;10.00;99.90;;;;;;2611023;54;20243;-67
2023/04/17 02:19:14;;;;;;;39.60;31.67;;;10.00;99.90;;;;;;2612745;54;20649;-68
2023/04/17 02:25:02;;;;;;;34.87;27.80;;;10.10;99.90;;;;;;2610449;39;20963;-68
2023/04/17 02:30:49;;;;;;;34.67;28.23;;;10.10;99.90;;;;;;2612866;54;20130;-67
2023/04/17 02:34:08;;;;;;;36.90;27.00;;;10.10;99.90;;;;;;2611324;47;20947;-68
2023/04/17 02:36:34;;;;;;;35.40;26.53;;;10.10;99.90;;;;;;2610136;54;20151;-67
2023/04/17 02:42:21;;;;;;;33.20;27.20;;;10.10;99.90;;;;;;2613047;54;20182;-74
2023/04/17 02:48:09;;;;;;;34.50;27.77;;;10.00;99.90;;;;;;2613291;54;20151;-73
2023/04/17 02:53:57;;;;;;;34.57;28.57;;;9.90;99.90;;;;;;2612210;54;20629;-74
2023/04/17 02:59:45;;;;;;;30.27;26.87;;;9.80;99.90;;;;;;2613312;39;20573;-74
2023/04/17 03:05:32;;;;;;;28.80;24.37;;;9.80;99.90;;;;;;2614231;39;20540;-75
2023/04/17 03:11:20;;;;;;;31.43;26.70;;;9.70;99.90;;;;;;2614802;39;20542;-74
2023/04/17 03:17:09;;;;;;;30.57;27.30;;;9.70;99.90;;;;;;2614008;54;20122;-73
2023/04/17 03:22:57;;;;;;;33.03;28.40;;;9.60;99.90;;;;;;2613628;54;20483;-74
2023/04/17 03:28:45;;;;;;;36.53;29.97;;;9.60;99.90;;;;;;2614763;39;20501;-75
2023/04/17 03:38:38;;;;;;;33.70;29.47;;;9.50;99.90;;;;;;2612475;39;20493;-74
2023/04/17 03:44:26;;;;;;;35.80;30.33;;;9.50;99.90;;;;;;2613310;39;20732;-74
2023/04/17 03:50:14;;;;;;;41.10;28.40;;;9.40;99.90;;;;;;2611626;54;20122;-74
2023/04/17 03:56:01;;;;;;;35.63;30.10;;;9.50;99.90;;;;;;2612498;54;20130;-74
2023/04/17 04:01:49;;;;;;;39.47;30.07;;;9.50;99.90;;;;;;2613275;54;20181;-74
2023/04/17 04:07:36;;;;;;;35.60;31.03;;;9.50;99.90;;;;;;2610903;54;20133;-74
2023/04/17 04:13:24;;;;;;;34.43;28.70;;;9.50;99.90;;;;;;2611723;46;20196;-75
2023/04/17 04:19:12;;;;;;;39.60;30.10;;;9.40;99.90;;;;;;2612566;54;20127;-74
2023/04/17 04:25:00;;;;;;;34.53;27.87;;;9.40;99.90;;;;;;2611363;54;20227;-74
2023/04/17 04:30:49;;;;;;;32.03;27.97;;;9.50;99.90;;;;;;2611118;54;20173;-73
2023/04/17 04:34:09;;;;;;;39.33;30.83;;;9.50;99.90;;;;;;2612470;46;20911;-74
2023/04/17 04:36:35;;;;;;;32.37;27.30;;;9.40;99.90;;;;;;2612296;54;20432;-74
2023/04/17 04:42:22;;;;;;;37.53;29.57;;;9.40;99.90;;;;;;2611695;54;20946;-74
2023/04/17 04:48:10;;;;;;;35.50;29.60;;;9.50;99.90;;;;;;2610366;46;20170;-74
2023/04/17 04:53:58;;;;;;;32.43;27.93;;;9.60;99.90;;;;;;2613009;54;20126;-74
2023/04/17 04:59:46;;;;;;;34.47;28.33;;;9.60;99.90;;;;;;2611966;54;20901;-74
2023/04/17 05:05:34;;;;;;;35.90;29.60;;;9.60;99.90;;;;;;2612574;54;20130;-74
2023/04/17 05:11:22;;;;;;;38.30;30.80;;;9.60;99.90;;;;;;2611253;39;20803;-74
2023/04/17 05:17:09;;;;;;;38.47;29.63;;;9.60;99.90;;;;;;2611589;54;20159;-75
2023/04/17 05:22:57;;;;;;;32.50;27.77;;;9.70;99.90;;;;;;2611879;54;20151;-75
2023/04/17 05:28:45;;;;;;;39.30;28.50;;;9.70;99.90;;;;;;2613900;54;20949;-74
2023/04/17 05:38:38;;;;;;;36.57;27.40;;;9.70;99.90;;;;;;2613314;54;20375;-73
2023/04/17 05:41:14;;;;;;;36.83;29.30;;;9.70;99.90;;;;;;2612541;54;20403;-74
2023/04/17 05:43:41;;;;;;;38.30;28.67;;;9.70;99.90;;;;;;2607317;54;20403;-74
2023/04/17 05:49:29;;;;;;;33.93;27.50;;;9.70;99.90;;;;;;2610899;54;20375;-75
2023/04/17 05:55:18;;;;;;;34.20;28.57;;;9.80;99.90;;;;;;2610713;54;20165;-73
2023/04/17 06:01:09;;;;;;;31.13;26.37;;;9.80;99.90;;;;;;2611814;54;20399;-74
2023/04/17 06:06:56;;;;;;;33.87;27.70;;;9.80;99.90;;;;;;2612234;54;20378;-74
2023/04/17 06:12:44;;;;;;;34.17;30.10;;;9.90;99.90;;;;;;2609265;54;20146;-74
2023/04/17 06:18:32;;;;;;;32.83;29.33;;;9.90;99.90;;;;;;2612360;54;20135;-74
2023/04/17 06:24:20;;;;;;;34.60;30.27;;;9.90;99.90;;;;;;2612733;54;20146;-74
2023/04/17 06:27:23;;;;;;;31.97;27.57;;;9.90;99.90;;;;;;2611855;54;20400;-74
2023/04/17 06:29:49;;;;;;;36.27;28.77;;;10.00;99.90;;;;;;2608654;54;20154;-75
2023/04/17 06:38:59;;;;;;;32.00;28.37;;;10.00;99.90;;;;;;2612810;54;20399;-73
2023/04/17 06:44:46;;;;;;;39.23;29.90;;;10.10;99.90;;;;;;2613339;39;20782;-74
2023/04/17 06:50:34;;;;;;;35.63;30.47;;;10.10;99.90;;;;;;2611941;39;21304;-75
2023/04/17 06:56:23;;;;;;;36.97;31.37;;;10.00;99.90;;;;;;2612659;54;20122;-74
2023/04/17 07:02:10;;;;;;;40.30;33.00;;;10.10;99.90;;;;;;2613615;54;20359;-73
2023/04/17 07:07:58;;;;;;;38.97;32.43;;;10.30;99.90;;;;;;2613806;54;20134;-75
2023/04/17 07:13:46;;;;;;;35.40;31.03;;;10.30;99.90;;;;;;2612720;54;20696;-74
2023/04/17 07:19:34;;;;;;;37.43;33.43;;;10.40;99.90;;;;;;2612039;54;20142;-75
2023/04/17 07:25:22;;;;;;;39.67;32.90;;;10.40;99.90;;;;;;2614046;54;20491;-73
2023/04/17 07:31:09;;;;;;;38.33;33.90;;;10.30;99.90;;;;;;2610177;54;20138;-74
2023/04/17 07:34:24;;;;;;;47.40;36.60;;;10.20;99.90;;;;;;2611238;54;20479;-74
2023/04/17 07:36:51;;;;;;;38.17;33.43;;;10.30;99.90;;;;;;2612752;39;20631;-75
2023/04/17 07:42:38;;;;;;;40.13;33.60;;;10.40;99.90;;;;;;2610094;54;20379;-69
2023/04/17 07:48:26;;;;;;;36.40;31.37;;;10.90;99.90;;;;;;2611959;39;20568;-68
2023/04/17 07:54:14;;;;;;;36.37;32.57;;;11.20;99.90;;;;;;2612370;54;20126;-69
2023/04/17 08:00:03;;;;;;;37.10;33.17;;;11.10;99.90;;;;;;2612584;54;20159;-68
2023/04/17 08:05:52;;;;;;;38.07;32.13;;;11.10;99.90;;;;;;2612523;54;20969;-68
2023/04/17 08:11:42;;;;;;;36.07;32.20;;;11.20;99.90;;;;;;2610507;54;20926;-68
2023/04/17 08:17:30;;;;;;;36.67;32.77;;;11.40;99.90;;;;;;2611930;54;20515;-68
2023/04/17 08:23:17;;;;;;;36.63;32.83;;;11.60;99.90;;;;;;2611536;54;20134;-68
2023/04/17 08:29:06;;;;;;;37.93;31.73;;;11.50;99.90;;;;;;2612019;54;20162;-69
2023/04/17 08:45:17;;;;;;;35.63;32.00;;;12.30;99.90;;;;;;2610409;54;20459;-69
2023/04/17 08:51:04;;;;;;;34.93;31.43;;;12.50;99.90;;;;;;2610272;54;20399;-69
2023/04/17 08:56:52;;;;;;;35.07;31.60;;;12.90;99.90;;;;;;2611102;54;20179;-68
2023/04/17 09:06:03;;;;;;;33.57;30.43;;;13.30;99.90;;;;;;2612300;31;21109;-67
2023/04/17 09:12:09;;;;;;;34.43;31.10;;;12.90;99.90;;;;;;2611782;54;20388;-67
2023/04/17 09:17:56;;;;;;;28.03;25.47;;;13.10;96.40;;;;;;2613949;39;20791;-67
2023/04/17 09:23:49;;;;;;;23.03;21.13;;;13.60;70.00;;;;;;2613072;54;20122;-67
2023/04/17 09:40:01;;;;;;;24.47;22.57;;;14.80;25.40;;;;;;2610780;54;20399;-75
2023/04/17 09:45:51;;;;;;;27.47;25.00;;;15.00;23.20;;;;;;2613247;54;20523;-76
2023/04/17 09:51:39;;;;;;;25.77;23.40;;;15.10;14.30;;;;;;2613120;54;20391;-76
2023/04/17 09:57:27;;;;;;;25.33;23.43;;;14.80;13.90;;;;;;2610828;54;20403;-75
2023/04/17 10:03:16;;;;;;;24.40;22.40;;;15.40;9.40;;;;;;2613479;54;20111;-75
2023/04/17 10:09:04;;;;;;;24.87;23.00;;;16.20;1.80;;;;;;2611309;54;20386;-70
2023/04/17 10:14:52;;;;;;;23.57;21.70;;;16.30;1.80;;;;;;2613515;54;20399;-69
2023/04/17 10:20:47;;;;;;;23.90;21.90;;;16.10;3.40;;;;;;2611989;54;20203;-70
2023/04/17 10:26:34;;;;;;;24.37;22.20;;;16.70;1.50;;;;;;2612114;54;20443;-70
2023/04/17 10:32:24;;;;;;;23.30;21.60;;;16.40;4.10;;;;;;2614094;54;20125;-69
2023/04/17 10:38:12;;;;;;;23.47;21.77;;;16.40;6.30;;;;;;2613282;54;20367;-69
2023/04/17 10:44:00;;;;;;;22.50;20.80;;;15.90;4.90;;;;;;2611508;54;20367;-70
2023/04/17 10:49:57;;;;;;;21.80;20.30;;;16.40;5.50;;;;;;2612548;54;20149;-69
2023/04/17 10:55:49;;;;;;;20.70;19.30;;;16.80;1.50;;;;;;2611779;54;20402;-70
2023/04/17 11:08:02;;;;;;;23.80;22.27;;;16.80;1.00;;;;;;2613463;54;20387;-69
2023/04/17 11:13:50;;;;;;;21.60;20.00;;;16.40;2.60;;;;;;2613622;54;20123;-69
2023/04/17 11:19:40;;;;;;;21.20;19.87;;;15.70;2.50;;;;;;2613032;54;20123;-70
2023/04/17 11:25:32;;;;;;;21.40;19.80;;;16.00;4.30;;;;;;2614421;54;21029;-69
2023/04/17 11:31:20;;;;;;;21.40;19.90;;;17.30;1.00;;;;;;2614771;39;20771;-69
2023/04/17 11:37:25;;;;;;;21.07;19.63;;;18.10;1.00;;;;;;2611937;39;20594;-69
2023/04/17 11:43:13;;;;;;;20.10;18.90;;;18.00;1.00;;;;;;2613252;54;20139;-69
2023/04/17 11:49:02;;;;;;;21.23;19.63;;;17.90;1.00;;;;;;2612385;54;21113;-70
2023/04/17 11:54:57;;;;;;;21.37;20.03;;;18.20;1.00;;;;;;2613483;39;20787;-69
2023/04/17 12:13:44;;;;;;;22.37;20.77;;;17.10;1.00;;;;;;2614046;54;20425;-69
2023/04/17 12:19:32;;;;;;;21.63;20.23;;;17.10;1.00;;;;;;2612594;54;20142;-69
2023/04/17 12:25:20;;;;;;;22.57;20.57;;;17.00;1.00;;;;;;2613253;39;20182;-69
2023/04/17 12:31:08;;;;;;;23.50;21.90;;;17.50;1.00;;;;;;2614341;54;20686;-69
2023/04/17 12:34:23;;;;;;;23.00;21.40;;;17.70;1.00;;;;;;2613316;54;20428;-69
2023/04/17 12:36:49;;;;;;;24.90;23.30;;;17.80;1.00;;;;;;2613994;54;20147;-69
2023/04/17 12:42:37;;;;;;;23.77;22.27;;;18.10;1.00;;;;;;2612220;54;20404;-69
2023/04/17 12:48:25;;;;;;;24.37;22.67;;;18.10;1.00;;;;;;2613943;54;20133;-70
2023/04/17 12:54:13;;;;;;;23.27;21.80;;;18.10;1.00;;;;;;2614076;54;20126;-70
2023/04/17 13:00:01;;;;;;;23.90;21.90;;;18.30;1.00;;;;;;2612657;54;20155;-69
2023/04/17 13:05:51;;;;;;;24.90;23.20;;;18.00;1.00;;;;;;2613919;54;20387;-69
2023/04/17 13:11:39;;;;;;;24.80;22.93;;;18.30;1.00;;;;;;2614153;54;20974;-70
2023/04/17 13:17:26;;;;;;;23.60;22.00;;;17.60;1.00;;;;;;2613759;54;20177;-69
2023/04/17 13:23:14;;;;;;;24.87;23.13;;;17.70;1.00;;;;;;2613998;54;20220;-70
2023/04/17 13:29:02;;;;;;;23.53;21.70;;;17.60;1.00;;;;;;2609571;39;20516;-70
2023/04/17 13:38:55;;;;;;;21.70;20.20;;;18.20;1.00;;;;;;2613181;54;20394;-70
2023/04/17 13:44:43;;;;;;;23.27;21.30;;;18.90;1.00;;;;;;2612636;54;20499;-69
2023/04/17 13:50:33;;;;;;;23.43;21.50;;;18.60;1.00;;;;;;2612163;54;20375;-69
2023/04/17 13:56:22;;;;;;;22.57;20.93;;;18.20;1.00;;;;;;2614175;39;20764;-69
2023/04/17 14:02:12;;;;;;;23.83;22.03;;;17.60;1.00;;;;;;2613819;54;20368;-70
2023/04/17 14:08:00;;;;;;;21.80;20.40;;;17.80;1.00;;;;;;2614355;54;20383;-70
2023/04/17 14:13:48;;;;;;;21.90;20.30;;;18.30;1.00;;;;;;2613475;39;20542;-69
2023/04/17 14:19:35;;;;;;;24.10;22.40;;;16.80;1.00;;;;;;2612701;39;20461;-69
2023/04/17 14:25:23;;;;;;;23.73;21.70;;;17.60;1.00;;;;;;2615353;54;20138;-70
2023/04/17 14:31:14;;;;;;;22.43;21.03;;;18.70;1.00;;;;;;2614202;54;20142;-70
2023/04/17 14:34:23;;;;;;;23.17;21.30;;;19.10;1.00;;;;;;2614409;39;20686;-70
2023/04/17 14:36:49;;;;;;;22.67;21.07;;;18.00;1.00;;;;;;2613765;54;20403;-70
2023/04/17 14:42:37;;;;;;;22.20;20.63;;;17.80;1.00;;;;;;2612414;54;20143;-70
2023/04/17 14:48:24;;;;;;;23.27;21.37;;;19.10;1.00;;;;;;2613623;54;20157;-70
2023/04/17 14:54:12;;;;;;;21.10;19.80;;;17.90;1.00;;;;;;2614517;54;20258;-70
2023/04/17 15:00:00;;;;;;;21.30;19.80;;;16.90;1.00;;;;;;2613868;54;20126;-70
2023/04/17 15:05:48;;;;;;;22.80;20.97;;;17.80;1.00;;;;;;2609194;54;20162;-70
2023/04/17 15:11:35;;;;;;;23.20;21.50;;;18.00;1.00;;;;;;2613689;46;20141;-70
2023/04/17 15:17:28;;;;;;;21.33;19.83;;;16.50;1.00;;;;;;2613037;54;20130;-70
2023/04/17 15:23:18;;;;;;;21.50;19.90;;;17.30;1.00;;;;;;2614086;54;20376;-71
2023/04/17 15:29:05;;;;;;;21.03;19.63;;;17.80;1.00;;;;;;2609140;54;21514;-69
2023/04/17 15:38:58;;;;;;;21.33;19.70;;;16.80;1.00;;;;;;2614524;54;20391;-69
2023/04/17 15:44:46;;;;;;;21.17;19.50;;;17.60;1.00;;;;;;2614923;54;20392;-70
2023/04/17 15:50:34;;;;;;;20.93;19.20;;;17.30;1.00;;;;;;2614191;54;20143;-71
2023/04/17 15:56:22;;;;;;;20.97;19.53;;;17.20;1.00;;;;;;2612226;54;20386;-70
2023/04/17 16:02:11;;;;;;;23.27;21.50;;;16.10;1.00;;;;;;2615043;39;20528;-69
2023/04/17 16:08:00;;;;;;;22.27;20.80;;;15.80;1.00;;;;;;2613176;54;20403;-70
2023/04/17 16:13:47;;;;;;;21.50;19.97;;;16.00;1.00;;;;;;2615025;54;20991;-70
2023/04/17 16:19:35;;;;;;;20.70;19.50;;;16.90;1.00;;;;;;2613149;39;20539;-70
2023/04/17 16:25:23;;;;;;;21.17;19.60;;;17.30;1.00;;;;;;2611881;54;20169;-70
2023/04/17 16:31:13;;;;;;;22.20;20.50;;;17.20;1.00;;;;;;2613728;54;20921;-70
2023/04/17 16:34:23;;;;;;;22.30;20.50;;;16.90;1.00;;;;;;2614116;54;20458;-70
2023/04/17 16:36:49;;;;;;;22.57;20.97;;;17.20;1.00;;;;;;2613782;54;20490;-70
2023/04/17 16:42:37;;;;;;;21.23;19.73;;;17.10;1.00;;;;;;2613295;54;20134;-70
2023/04/17 16:48:25;;;;;;;19.63;18.43;;;17.50;1.00;;;;;;2612613;54;20138;-70
2023/04/17 16:54:13;;;;;;;19.00;17.80;;;17.30;1.00;;;;;;2613743;39;20639;-69
2023/04/17 17:00:00;;;;;;;20.83;19.17;;;17.10;1.00;;;;;;2613090;54;20143;-70
2023/04/17 17:05:48;;;;;;;21.70;19.87;;;16.00;1.00;;;;;;2612506;54;20680;-70
2023/04/17 17:11:36;;;;;;;22.63;21.10;;;15.50;1.00;;;;;;2609966;54;20126;-69
2023/04/17 17:17:24;;;;;;;22.63;20.60;;;15.30;1.00;;;;;;2609425;54;20186;-70
2023/04/17 17:23:11;;;;;;;22.10;20.43;;;15.10;1.00;;;;;;2614404;39;20779;-71
2023/04/17 17:28:59;;;;;;;21.70;20.13;;;15.00;1.00;;;;;;2612595;54;20174;-70
2023/04/17 17:38:56;;;;;;;23.43;21.53;;;14.70;1.00;;;;;;2613528;54;20379;-70
2023/04/17 17:44:43;;;;;;;24.23;22.53;;;14.40;1.00;;;;;;2613492;54;20542;-71
2023/04/17 17:50:31;;;;;;;24.07;22.13;;;14.30;1.00;;;;;;2610527;54;20130;-70
2023/04/17 17:56:22;;;;;;;23.63;21.63;;;14.10;1.00;;;;;;2609981;54;20708;-70
2023/04/17 18:02:09;;;;;;;25.60;23.37;;;14.10;1.00;;;;;;2608942;39;20877;-71
2023/04/17 18:07:57;;;;;;;23.77;21.67;;;14.00;1.00;;;;;;2608670;54;20242;-70
2023/04/17 18:13:45;;;;;;;23.60;21.47;;;14.00;1.00;;;;;;2608306;54;20251;-71
2023/04/17 18:19:33;;;;;;;23.43;21.60;;;13.80;1.00;;;;;;2610622;54;20155;-68
2023/04/17 18:25:21;;;;;;;24.53;22.73;;;13.70;1.00;;;;;;2613828;54;20259;-69
2023/04/17 18:31:08;;;;;;;25.70;23.70;;;13.50;1.00;;;;;;2613987;54;21055;-70
2023/04/17 18:34:23;;;;;;;24.57;22.57;;;13.40;1.00;;;;;;2614102;54;20404;-69
2023/04/17 18:36:51;;;;;;;25.60;23.70;;;13.30;1.00;;;;;;2614880;39;20617;-69
2023/04/17 18:42:39;;;;;;;23.90;22.20;;;13.00;1.00;;;;;;2612239;54;20367;-69
2023/04/17 18:48:27;;;;;;;24.33;22.43;;;13.00;1.00;;;;;;2614618;54;20131;-69
2023/04/17 18:54:16;;;;;;;25.73;23.53;;;12.60;2.00;;;;;;2614871;54;20214;-69
2023/04/17 19:00:04;;;;;;;25.37;23.27;;;12.30;5.40;;;;;;2614734;54;20455;-69
2023/04/17 19:05:52;;;;;;;24.50;22.70;;;12.10;8.70;;;;;;2610851;54;20391;-69
2023/04/17 19:11:40;;;;;;;25.50;23.30;;;12.00;11.40;;;;;;2610963;54;20158;-69
2023/04/17 19:17:28;;;;;;;24.90;22.90;;;12.20;10.00;;;;;;2610312;54;20661;-69
2023/04/17 19:23:16;;;;;;;24.60;22.67;;;12.30;9.80;;;;;;2611196;54;20218;-69
2023/04/17 19:29:03;;;;;;;24.60;22.40;;;12.40;8.70;;;;;;2610672;54;20131;-69
2023/04/17 19:38:54;;;;;;;31.03;28.00;;;12.30;10.30;;;;;;2610313;54;21054;-69
2023/04/17 19:44:42;;;;;;;26.70;24.13;;;12.20;12.20;;;;;;2613992;39;20809;-68
2023/04/17 19:50:29;;;;;;;25.43;23.23;;;12.20;13.20;;;;;;2614499;54;20661;-68
2023/04/17 19:56:17;;;;;;;27.73;24.03;;;12.30;14.80;;;;;;2611295;54;20166;-68
2023/04/17 20:02:05;;;;;;;27.63;25.33;;;12.10;17.60;;;;;;2611336;39;20514;-69
2023/04/17 20:07:54;;;;;;;26.57;24.20;;;11.90;18.80;;;;;;2609623;54;20162;-69
2023/04/17 20:13:41;;;;;;;24.80;22.80;;;11.90;18.90;;;;;;2609638;39;20798;-70
2023/04/17 20:19:29;;;;;;;24.57;22.50;;;11.90;20.50;;;;;;2609519;54;20158;-70
2023/04/17 20:25:17;;;;;;;26.03;24.03;;;12.00;19.30;;;;;;2611591;54;20150;-70
2023/04/17 20:31:04;;;;;;;24.93;22.53;;;11.90;20.40;;;;;;2609926;54;20150;-69
2023/04/17 20:34:23;;;;;;;25.00;22.77;;;12.10;17.70;;;;;;2610285;54;20432;-69
2023/04/17 20:36:49;;;;;;;25.40;23.10;;;12.00;17.50;;;;;;2609913;54;20186;-70
2023/04/17 20:42:37;;;;;;;25.70;23.73;;;11.80;20.70;;;;;;2611353;54;20158;-70
2023/04/17 20:48:24;;;;;;;25.20;23.23;;;11.70;20.90;;;;;;2609681;54;20411;-70
2023/04/17 20:54:12;;;;;;;27.67;25.20;;;11.70;21.00;;;;;;2610084;39;20520;-70
2023/04/17 21:00:00;;;;;;;24.97;22.97;;;11.60;21.00;;;;;;2610169;54;20146;-70
2023/04/17 21:05:48;;;;;;;24.07;22.20;;;11.50;18.10;;;;;;2611002;39;21042;-70
2023/04/17 21:11:36;;;;;;;23.30;21.30;;;11.40;16.80;;;;;;2610620;46;20169;-70
2023/04/17 21:17:23;;;;;;;23.00;21.43;;;11.20;20.70;;;;;;2611142;54;20222;-70
2023/04/17 21:23:11;;;;;;;24.40;22.50;;;11.10;21.60;;;;;;2610993;54;20126;-69
2023/04/17 21:28:59;;;;;;;23.23;21.47;;;10.90;24.60;;;;;;2612958;54;20205;-70
2023/04/17 21:38:53;;;;;;;24.27;22.30;;;10.90;23.80;;;;;;2609253;39;20806;-70
2023/04/17 21:44:41;;;;;;;25.60;23.57;;;10.70;21.20;;;;;;2612280;54;20411;-71
2023/04/17 21:50:29;;;;;;;23.07;21.17;;;10.60;20.30;;;;;;2613178;39;20679;-69
2023/04/17 21:56:17;;;;;;;21.53;19.83;;;10.70;20.70;;;;;;2613024;39;20771;-71
2023/04/17 22:02:04;;;;;;;23.03;21.20;;;10.80;14.30;;;;;;2609493;54;20155;-70
2023/04/17 22:07:53;;;;;;;21.93;20.10;;;10.80;10.40;;;;;;2610649;54;20135;-70
2023/04/17 22:13:40;;;;;;;21.37;19.70;;;10.50;10.70;;;;;;2611095;54;20138;-70
2023/04/17 22:19:28;;;;;;;23.70;21.70;;;10.30;11.40;;;;;;2610775;54;20227;-70
2023/04/17 22:25:16;;;;;;;22.03;20.03;;;10.30;10.90;;;;;;2611410;54;20157;-69
2023/04/17 22:31:04;;;;;;;22.93;20.77;;;10.20;12.00;;;;;;2613509;54;20452;-70
2023/04/17 22:34:23;;;;;;;20.70;19.00;;;10.20;11.10;;;;;;2609975;47;20415;-69
2023/04/17 22:36:48;;;;;;;22.27;20.37;;;10.20;8.90;;;;;;2612098;54;20804;-69
2023/04/17 22:42:36;;;;;;;23.27;21.07;;;9.90;10.90;;;;;;2612610;46;20138;-70
2023/04/17 22:48:24;;;;;;;22.63;20.87;;;9.90;9.50;;;;;;2612570;54;20154;-69
2023/04/17 22:54:12;;;;;;;21.40;19.50;;;9.80;9.40;;;;;;2611413;39;20996;-70
2023/04/17 23:00:00;;;;;;;22.97;20.77;;;9.70;9.30;;;;;;2612397;54;20653;-70
2023/04/17 23:05:47;;;;;;;21.60;19.70;;;9.50;12.00;;;;;;2613176;54;20126;-70
2023/04/17 23:11:35;;;;;;;20.60;19.10;;;9.40;13.80;;;;;;2610319;54;20174;-70
2023/04/17 23:17:23;;;;;;;22.50;20.60;;;9.30;15.00;;;;;;2612751;54;20166;-70
2023/04/17 23:23:11;;;;;;;21.60;19.83;;;9.00;19.20;;;;;;2611741;39;20926;-69
2023/04/17 23:28:58;;;;;;;22.83;20.63;;;8.80;22.70;;;;;;2610263;54;20263;-70
2023/04/17 23:38:55;;;;;;;22.00;20.10;;;8.70;27.90;;;;;;2610106;54;20399;-69
2023/04/17 23:44:42;;;;;;;22.13;20.20;;;8.70;32.20;;;;;;2611263;54;20388;-70
2023/04/17 23:50:30;;;;;;;22.03;20.30;;;8.50;41.00;;;;;;2610747;39;20636;-70
2023/04/17 23:56:21;;;;;;;22.77;20.80;;;8.50;46.60;;;;;;2610838;46;20921;-69
